Miquan, China
Current Conditions -  °F | °C
As of 11:30 AM on Tuesday 21 Oct 2014 (Local Time) from ZWWW Reporting Station
Clear Clear  
Wind Chill: 68°   Ceiling: Unl
Heat Index: 68°   Visibility: 6mi
Dew Point: 30°   Wind: 2mph
Humidity: 24%   Direction: NA
Pressure: 30.03"   Gusts: NA
Location:  43.97°N, 87.7°E
Report Text: ZWWW 210330Z VRB01MPS CAVOK 20/M01 Q1017 NOSIG
Loading
Personal Weather Stations






























Interactive Weather Map
Tropical Storm Tracking
New forecast layout! Learn more

10-Day Weather Forecast

Advertisements
Track Severe Weather on mobile